DLH6UA EDDF-LIMC
Flight info
| Callsign | DLH6UA |
|---|---|
| Flight time | 0h 58m |
| Altitude | 33000 |
| Route | ANEKI2L/18 ANEKI Y163 NATOR DCT DITON DCT BASGO Z424 RIXUV |
| Aircraft | A321/M-SDE3FGHIRWY/LB1 |
Departure
| Time | 2026-05-06 15:08 |
|---|---|
| Airport | Frankfurt Main Airport (EDDF) |
Arrival
| Time | 2026-05-06 16:06 |
|---|---|
| Airport | Milan Malpensa International Airport (LIMC) |
| Time | Latitude | Longitude | Altitude | Speed | Heading |
|---|---|---|---|---|---|
| 2026-05-06 14:40 | 50.04431 | 8.56329 | 356 ft | 0 kts | 167° |
| 2026-05-06 14:56 | 50.04434 | 8.56328 | 356 ft | 3 kts | 167° |
| 2026-05-06 14:56 | 50.04460 | 8.56319 | 359 ft | 4 kts | 171° |
| 2026-05-06 14:56 | 50.04487 | 8.56316 | 356 ft | 4 kts | 193° |
| 2026-05-06 14:57 | 50.04504 | 8.56332 | 363 ft | 3 kts | 249° |
| 2026-05-06 14:57 | 50.04497 | 8.56301 | 362 ft | 4 kts | 249° |
| 2026-05-06 14:57 | 50.04487 | 8.56262 | 356 ft | 4 kts | 249° |
| 2026-05-06 14:57 | 50.04478 | 8.56223 | 361 ft | 4 kts | 249° |
| 2026-05-06 14:58 | 50.04469 | 8.56183 | 362 ft | 4 kts | 249° |
| 2026-05-06 14:58 | 50.04459 | 8.56144 | 357 ft | 4 kts | 249° |
| 2026-05-06 14:58 | 50.04455 | 8.56124 | 364 ft | 0 kts | 249° |
| 2026-05-06 15:00 | 50.04453 | 8.56119 | 363 ft | 2 kts | 249° |
| 2026-05-06 15:01 | 50.04431 | 8.56052 | 360 ft | 11 kts | 227° |
| 2026-05-06 15:01 | 50.04360 | 8.56048 | 357 ft | 12 kts | 164° |
| 2026-05-06 15:01 | 50.04282 | 8.56072 | 355 ft | 10 kts | 211° |
| 2026-05-06 15:01 | 50.04242 | 8.55966 | 362 ft | 16 kts | 251° |
| 2026-05-06 15:02 | 50.04194 | 8.55746 | 361 ft | 23 kts | 251° |
| 2026-05-06 15:02 | 50.04135 | 8.55511 | 358 ft | 23 kts | 248° |
| 2026-05-06 15:02 | 50.04083 | 8.55286 | 355 ft | 21 kts | 250° |
| 2026-05-06 15:02 | 50.04033 | 8.55077 | 360 ft | 20 kts | 249° |
| 2026-05-06 15:03 | 50.03983 | 8.54870 | 353 ft | 22 kts | 250° |
| 2026-05-06 15:03 | 50.03925 | 8.54622 | 350 ft | 25 kts | 249° |
| 2026-05-06 15:03 | 50.03861 | 8.54379 | 354 ft | 24 kts | 237° |
| 2026-05-06 15:03 | 50.03784 | 8.54155 | 350 ft | 23 kts | 249° |
| 2026-05-06 15:04 | 50.03730 | 8.53929 | 347 ft | 22 kts | 250° |
| 2026-05-06 15:04 | 50.03677 | 8.53704 | 347 ft | 22 kts | 249° |
| 2026-05-06 15:04 | 50.03621 | 8.53489 | 338 ft | 21 kts | 249° |
| 2026-05-06 15:04 | 50.03572 | 8.53282 | 335 ft | 20 kts | 250° |
| 2026-05-06 15:05 | 50.03524 | 8.53083 | 337 ft | 19 kts | 249° |
| 2026-05-06 15:05 | 50.03480 | 8.52903 | 336 ft | 16 kts | 247° |
| 2026-05-06 15:05 | 50.03443 | 8.52769 | 334 ft | 9 kts | 247° |
| 2026-05-06 15:05 | 50.03437 | 8.52746 | 333 ft | 0 kts | 247° |
| 2026-05-06 15:06 | 50.03436 | 8.52742 | 333 ft | 2 kts | 247° |
| 2026-05-06 15:06 | 50.03421 | 8.52687 | 334 ft | 7 kts | 247° |
| 2026-05-06 15:06 | 50.03397 | 8.52619 | 332 ft | 8 kts | 231° |
| 2026-05-06 15:07 | 50.03348 | 8.52595 | 335 ft | 9 kts | 180° |
| 2026-05-06 15:07 | 50.03098 | 8.52596 | 336 ft | 75 kts | 180° |
| 2026-05-06 15:07 | 50.02330 | 8.52597 | 336 ft | 144 kts | 180° |
| 2026-05-06 15:07 | 50.01164 | 8.52671 | 543 ft | 179 kts | 177° |
| 2026-05-06 15:08 | 49.99941 | 8.52916 | 1407 ft | 178 kts | 178° |
| 2026-05-06 15:08 | 49.98669 | 8.53005 | 1947 ft | 192 kts | 182° |
| 2026-05-06 15:08 | 49.97260 | 8.53035 | 2250 ft | 214 kts | 184° |
| 2026-05-06 15:08 | 49.95703 | 8.53067 | 2772 ft | 228 kts | 183° |
| 2026-05-06 15:09 | 49.94124 | 8.53127 | 3672 ft | 227 kts | 181° |
| 2026-05-06 15:09 | 49.92547 | 8.53206 | 4563 ft | 227 kts | 181° |
| 2026-05-06 15:09 | 49.90955 | 8.53297 | 5397 ft | 230 kts | 180° |
| 2026-05-06 15:09 | 49.89351 | 8.53396 | 6248 ft | 232 kts | 180° |
| 2026-05-06 15:10 | 49.87730 | 8.53499 | 7062 ft | 235 kts | 180° |
| 2026-05-06 15:10 | 49.86078 | 8.53607 | 7820 ft | 239 kts | 180° |
| 2026-05-06 15:10 | 49.84407 | 8.53722 | 8618 ft | 241 kts | 180° |
| 2026-05-06 15:10 | 49.82714 | 8.53841 | 9366 ft | 245 kts | 179° |
| 2026-05-06 15:11 | 49.81022 | 8.53956 | 10074 ft | 248 kts | 179° |
| 2026-05-06 15:11 | 49.79292 | 8.54071 | 10787 ft | 250 kts | 180° |
| 2026-05-06 15:11 | 49.77539 | 8.54077 | 11418 ft | 257 kts | 186° |
| 2026-05-06 15:11 | 49.75678 | 8.53835 | 11674 ft | 280 kts | 187° |
| 2026-05-06 15:12 | 49.73654 | 8.53558 | 11876 ft | 303 kts | 186° |
| 2026-05-06 15:12 | 49.71474 | 8.53257 | 12031 ft | 326 kts | 187° |
| 2026-05-06 15:12 | 49.69146 | 8.52937 | 12225 ft | 344 kts | 187° |
| 2026-05-06 15:12 | 49.66724 | 8.52610 | 12709 ft | 353 kts | 186° |
| 2026-05-06 15:13 | 49.64267 | 8.52288 | 13355 ft | 356 kts | 186° |
| 2026-05-06 15:13 | 49.61778 | 8.51967 | 13934 ft | 361 kts | 186° |
| 2026-05-06 15:13 | 49.59271 | 8.51645 | 14593 ft | 363 kts | 186° |
| 2026-05-06 15:13 | 49.56740 | 8.51316 | 15212 ft | 366 kts | 186° |
| 2026-05-06 15:14 | 49.54190 | 8.50983 | 15811 ft | 368 kts | 186° |
| 2026-05-06 15:14 | 49.51630 | 8.50645 | 16383 ft | 372 kts | 186° |
| 2026-05-06 15:14 | 49.49042 | 8.50304 | 16959 ft | 375 kts | 186° |
| 2026-05-06 15:14 | 49.46426 | 8.49962 | 17484 ft | 379 kts | 185° |
| 2026-05-06 15:15 | 49.43786 | 8.49617 | 18079 ft | 381 kts | 186° |
| 2026-05-06 15:15 | 49.41142 | 8.49268 | 18592 ft | 382 kts | 185° |
| 2026-05-06 15:15 | 49.38492 | 8.48920 | 19134 ft | 383 kts | 185° |
| 2026-05-06 15:15 | 49.35834 | 8.48572 | 19594 ft | 386 kts | 185° |
| 2026-05-06 15:16 | 49.33149 | 8.48221 | 20061 ft | 389 kts | 185° |
| 2026-05-06 15:16 | 49.30441 | 8.47872 | 20497 ft | 392 kts | 185° |
| 2026-05-06 15:16 | 49.27713 | 8.47520 | 20972 ft | 394 kts | 186° |
| 2026-05-06 15:16 | 49.25006 | 8.47171 | 21450 ft | 396 kts | 186° |
| 2026-05-06 15:17 | 49.22218 | 8.46811 | 21909 ft | 399 kts | 186° |
| 2026-05-06 15:17 | 49.19437 | 8.46448 | 22376 ft | 402 kts | 185° |
| 2026-05-06 15:17 | 49.16671 | 8.46083 | 22773 ft | 405 kts | 185° |
| 2026-05-06 15:17 | 49.13855 | 8.45713 | 23255 ft | 407 kts | 185° |
| 2026-05-06 15:18 | 49.11020 | 8.45344 | 23660 ft | 410 kts | 185° |
| 2026-05-06 15:18 | 49.08172 | 8.44976 | 24051 ft | 411 kts | 185° |
| 2026-05-06 15:18 | 49.05332 | 8.44391 | 24418 ft | 413 kts | 192° |
| 2026-05-06 15:18 | 49.02521 | 8.43414 | 24794 ft | 416 kts | 193° |
| 2026-05-06 15:19 | 48.99693 | 8.42426 | 25200 ft | 417 kts | 193° |
| 2026-05-06 15:19 | 48.96855 | 8.41437 | 25582 ft | 419 kts | 192° |
| 2026-05-06 15:19 | 48.94006 | 8.40445 | 25988 ft | 421 kts | 192° |
| 2026-05-06 15:19 | 48.91133 | 8.39451 | 26224 ft | 426 kts | 192° |
| 2026-05-06 15:20 | 48.88220 | 8.38444 | 26356 ft | 434 kts | 192° |
| 2026-05-06 15:20 | 48.85255 | 8.37417 | 26492 ft | 440 kts | 192° |
| 2026-05-06 15:20 | 48.82247 | 8.36378 | 26636 ft | 445 kts | 192° |
| 2026-05-06 15:20 | 48.79221 | 8.35334 | 26903 ft | 447 kts | 192° |
| 2026-05-06 15:21 | 48.76194 | 8.34275 | 27278 ft | 445 kts | 193° |
| 2026-05-06 15:21 | 48.73184 | 8.33185 | 27722 ft | 443 kts | 193° |
| 2026-05-06 15:21 | 48.70197 | 8.32081 | 28142 ft | 441 kts | 193° |
| 2026-05-06 15:21 | 48.67223 | 8.30975 | 28570 ft | 439 kts | 193° |
| 2026-05-06 15:22 | 48.64262 | 8.29876 | 28991 ft | 437 kts | 193° |
| 2026-05-06 15:22 | 48.61314 | 8.28790 | 29413 ft | 435 kts | 193° |
| 2026-05-06 15:22 | 48.58377 | 8.27716 | 29835 ft | 433 kts | 193° |
| 2026-05-06 15:22 | 48.55452 | 8.26653 | 30182 ft | 432 kts | 193° |
| 2026-05-06 15:23 | 48.52573 | 8.25611 | 30523 ft | 430 kts | 192° |
| 2026-05-06 15:23 | 48.49621 | 8.24952 | 30859 ft | 428 kts | 184° |
| 2026-05-06 15:23 | 48.46637 | 8.25008 | 31188 ft | 428 kts | 175° |
| 2026-05-06 15:23 | 48.43691 | 8.25664 | 31510 ft | 428 kts | 172° |
| 2026-05-06 15:24 | 48.40751 | 8.26393 | 31824 ft | 427 kts | 173° |
| 2026-05-06 15:24 | 48.37813 | 8.27109 | 32160 ft | 426 kts | 173° |
| 2026-05-06 15:24 | 48.34887 | 8.27812 | 32463 ft | 425 kts | 173° |
| 2026-05-06 15:24 | 48.31973 | 8.28510 | 32772 ft | 423 kts | 173° |
| 2026-05-06 15:25 | 48.29062 | 8.29209 | 32853 ft | 426 kts | 174° |
| 2026-05-06 15:25 | 48.24185 | 8.30385 | 32870 ft | 428 kts | 173° |
| 2026-05-06 15:26 | 48.17342 | 8.31999 | 32858 ft | 427 kts | 177° |
| 2026-05-06 15:26 | 48.11417 | 8.32188 | 32855 ft | 425 kts | 182° |
| 2026-05-06 15:27 | 48.06458 | 8.32253 | 32866 ft | 425 kts | 181° |
| 2026-05-06 15:27 | 48.00577 | 8.32350 | 32874 ft | 425 kts | 181° |
| 2026-05-06 15:28 | 47.94655 | 8.32441 | 32883 ft | 426 kts | 181° |
| 2026-05-06 15:28 | 47.88731 | 8.32521 | 32882 ft | 426 kts | 181° |
| 2026-05-06 15:29 | 47.82800 | 8.32608 | 32900 ft | 426 kts | 181° |
| 2026-05-06 15:29 | 47.76876 | 8.32693 | 32892 ft | 426 kts | 181° |
| 2026-05-06 15:30 | 47.70962 | 8.32777 | 32886 ft | 426 kts | 182° |
| 2026-05-06 15:30 | 47.65035 | 8.32854 | 32899 ft | 426 kts | 182° |
| 2026-05-06 15:31 | 47.59108 | 8.32938 | 32908 ft | 426 kts | 182° |
| 2026-05-06 15:31 | 47.53233 | 8.33020 | 32906 ft | 426 kts | 182° |
| 2026-05-06 15:32 | 47.44334 | 8.33142 | 32901 ft | 426 kts | 182° |
| 2026-05-06 15:32 | 47.38412 | 8.33216 | 32878 ft | 426 kts | 182° |
| 2026-05-06 15:33 | 47.32483 | 8.33297 | 32907 ft | 425 kts | 182° |
| 2026-05-06 15:33 | 47.26562 | 8.33609 | 32907 ft | 427 kts | 179° |
| 2026-05-06 15:34 | 47.20666 | 8.34467 | 32911 ft | 428 kts | 178° |
| 2026-05-06 15:34 | 47.14742 | 8.35438 | 32917 ft | 429 kts | 178° |
| 2026-05-06 15:35 | 47.08800 | 8.36312 | 32941 ft | 428 kts | 179° |
| 2026-05-06 15:35 | 47.02874 | 8.37093 | 32942 ft | 427 kts | 179° |
| 2026-05-06 15:36 | 46.96972 | 8.37868 | 32947 ft | 425 kts | 179° |
| 2026-05-06 15:36 | 46.91078 | 8.38677 | 32948 ft | 425 kts | 179° |
| 2026-05-06 15:37 | 46.85194 | 8.39480 | 32925 ft | 424 kts | 179° |
| 2026-05-06 15:37 | 46.79330 | 8.40263 | 32927 ft | 422 kts | 179° |
| 2026-05-06 15:38 | 46.73515 | 8.41038 | 32920 ft | 423 kts | 179° |
| 2026-05-06 15:38 | 46.67637 | 8.41822 | 32893 ft | 426 kts | 179° |
| 2026-05-06 15:39 | 46.61728 | 8.42620 | 32646 ft | 423 kts | 179° |
| 2026-05-06 15:39 | 46.58817 | 8.43023 | 32209 ft | 416 kts | 179° |
| 2026-05-06 15:39 | 46.55930 | 8.43420 | 31950 ft | 416 kts | 179° |
| 2026-05-06 15:40 | 46.53038 | 8.43813 | 31693 ft | 417 kts | 180° |
| 2026-05-06 15:40 | 46.50191 | 8.44193 | 30999 ft | 415 kts | 180° |
| 2026-05-06 15:40 | 46.47318 | 8.44571 | 30163 ft | 414 kts | 180° |
| 2026-05-06 15:40 | 46.44446 | 8.44948 | 29220 ft | 413 kts | 179° |
| 2026-05-06 15:41 | 46.41599 | 8.45322 | 28317 ft | 411 kts | 179° |
| 2026-05-06 15:41 | 46.38744 | 8.45699 | 27389 ft | 411 kts | 179° |
| 2026-05-06 15:41 | 46.35893 | 8.46075 | 26441 ft | 412 kts | 179° |
| 2026-05-06 15:41 | 46.33034 | 8.46451 | 25406 ft | 414 kts | 178° |
| 2026-05-06 15:42 | 46.30149 | 8.46831 | 24493 ft | 419 kts | 178° |
| 2026-05-06 15:42 | 46.27179 | 8.47225 | 24112 ft | 435 kts | 178° |
| 2026-05-06 15:42 | 46.24146 | 8.47641 | 23897 ft | 440 kts | 177° |
| 2026-05-06 15:42 | 46.21087 | 8.48079 | 23891 ft | 443 kts | 177° |
| 2026-05-06 15:43 | 46.18014 | 8.48527 | 23896 ft | 444 kts | 177° |
| 2026-05-06 15:43 | 46.14939 | 8.48977 | 23888 ft | 444 kts | 177° |
| 2026-05-06 15:43 | 46.11880 | 8.49501 | 23888 ft | 441 kts | 173° |
| 2026-05-06 15:43 | 46.08987 | 8.50639 | 23875 ft | 421 kts | 164° |
| 2026-05-06 15:44 | 46.06306 | 8.52098 | 23761 ft | 402 kts | 163° |
| 2026-05-06 15:44 | 46.03751 | 8.53488 | 23624 ft | 385 kts | 164° |
| 2026-05-06 15:44 | 46.01301 | 8.54815 | 23505 ft | 367 kts | 164° |
| 2026-05-06 15:44 | 45.98953 | 8.56079 | 23375 ft | 353 kts | 164° |
| 2026-05-06 15:45 | 45.96726 | 8.57275 | 23201 ft | 341 kts | 165° |
| 2026-05-06 15:45 | 45.94528 | 8.58449 | 22825 ft | 334 kts | 165° |
| 2026-05-06 15:45 | 45.92361 | 8.59600 | 22346 ft | 331 kts | 165° |
| 2026-05-06 15:45 | 45.90228 | 8.60821 | 21843 ft | 331 kts | 158° |
| 2026-05-06 15:46 | 45.88299 | 8.62642 | 21352 ft | 335 kts | 146° |
| 2026-05-06 15:46 | 45.86489 | 8.64740 | 20868 ft | 333 kts | 146° |
| 2026-05-06 15:46 | 45.84693 | 8.66829 | 20404 ft | 331 kts | 146° |
| 2026-05-06 15:46 | 45.82911 | 8.68903 | 19892 ft | 329 kts | 147° |
| 2026-05-06 15:47 | 45.81132 | 8.70964 | 19373 ft | 329 kts | 146° |
| 2026-05-06 15:47 | 45.79350 | 8.73021 | 18903 ft | 328 kts | 146° |
| 2026-05-06 15:47 | 45.77580 | 8.75067 | 18459 ft | 326 kts | 146° |
| 2026-05-06 15:47 | 45.75755 | 8.76934 | 17991 ft | 319 kts | 155° |
| 2026-05-06 15:48 | 45.73805 | 8.78445 | 17471 ft | 317 kts | 156° |
| 2026-05-06 15:48 | 45.71866 | 8.79936 | 16980 ft | 315 kts | 156° |
| 2026-05-06 15:48 | 45.69965 | 8.81395 | 16479 ft | 313 kts | 156° |
| 2026-05-06 15:48 | 45.68056 | 8.82859 | 16008 ft | 311 kts | 156° |
| 2026-05-06 15:49 | 45.66153 | 8.84316 | 15554 ft | 308 kts | 155° |
| 2026-05-06 15:49 | 45.64301 | 8.85738 | 15412 ft | 296 kts | 155° |
| 2026-05-06 15:49 | 45.62518 | 8.87102 | 15223 ft | 286 kts | 158° |
| 2026-05-06 15:49 | 45.60671 | 8.88006 | 14874 ft | 277 kts | 173° |
| 2026-05-06 15:50 | 45.58782 | 8.88507 | 14498 ft | 276 kts | 173° |
| 2026-05-06 15:50 | 45.56898 | 8.89011 | 14125 ft | 274 kts | 172° |
| 2026-05-06 15:50 | 45.55050 | 8.89512 | 13768 ft | 273 kts | 172° |
| 2026-05-06 15:50 | 45.53179 | 8.90023 | 13377 ft | 272 kts | 172° |
| 2026-05-06 15:51 | 45.51325 | 8.90530 | 12976 ft | 271 kts | 172° |
| 2026-05-06 15:51 | 45.49483 | 8.91032 | 12644 ft | 267 kts | 172° |
| 2026-05-06 15:51 | 45.47688 | 8.91523 | 12432 ft | 260 kts | 172° |
| 2026-05-06 15:51 | 45.45920 | 8.92008 | 12103 ft | 257 kts | 172° |
| 2026-05-06 15:52 | 45.44163 | 8.92487 | 11757 ft | 256 kts | 172° |
| 2026-05-06 15:52 | 45.42415 | 8.92960 | 11457 ft | 255 kts | 172° |
| 2026-05-06 15:52 | 45.40701 | 8.93423 | 11125 ft | 254 kts | 172° |
| 2026-05-06 15:52 | 45.38976 | 8.93891 | 10896 ft | 249 kts | 172° |
| 2026-05-06 15:53 | 45.37287 | 8.94351 | 10697 ft | 247 kts | 173° |
| 2026-05-06 15:53 | 45.35595 | 8.94806 | 10330 ft | 248 kts | 173° |
| 2026-05-06 15:53 | 45.33897 | 8.95262 | 9986 ft | 247 kts | 172° |
| 2026-05-06 15:53 | 45.32209 | 8.95715 | 9657 ft | 246 kts | 172° |
| 2026-05-06 15:54 | 45.30530 | 8.96167 | 9297 ft | 244 kts | 172° |
| 2026-05-06 15:54 | 45.28868 | 8.96619 | 8685 ft | 241 kts | 172° |
| 2026-05-06 15:54 | 45.27231 | 8.97067 | 7994 ft | 239 kts | 172° |
| 2026-05-06 15:54 | 45.25628 | 8.97504 | 7371 ft | 236 kts | 171° |
| 2026-05-06 15:55 | 45.24021 | 8.97939 | 6739 ft | 234 kts | 171° |
| 2026-05-06 15:55 | 45.22425 | 8.98369 | 6233 ft | 233 kts | 171° |
| 2026-05-06 15:55 | 45.20890 | 8.98784 | 6062 ft | 216 kts | 172° |
| 2026-05-06 15:55 | 45.19409 | 8.99181 | 6014 ft | 219 kts | 172° |
| 2026-05-06 15:56 | 45.17909 | 8.99517 | 5957 ft | 217 kts | 181° |
| 2026-05-06 15:56 | 45.16507 | 8.98948 | 5923 ft | 206 kts | 214° |
| 2026-05-06 15:56 | 45.15663 | 8.97388 | 5861 ft | 203 kts | 251° |
| 2026-05-06 15:56 | 45.15634 | 8.95369 | 5573 ft | 214 kts | 283° |
| 2026-05-06 15:57 | 45.16463 | 8.93635 | 5341 ft | 217 kts | 317° |
| 2026-05-06 15:57 | 45.17691 | 8.92365 | 5211 ft | 220 kts | 322° |
| 2026-05-06 15:57 | 45.18978 | 8.91181 | 5089 ft | 220 kts | 323° |
| 2026-05-06 15:57 | 45.20270 | 8.90012 | 4965 ft | 220 kts | 324° |
| 2026-05-06 15:58 | 45.21555 | 8.88837 | 4841 ft | 219 kts | 323° |
| 2026-05-06 15:58 | 45.22830 | 8.87648 | 4728 ft | 219 kts | 324° |
| 2026-05-06 15:58 | 45.24075 | 8.86451 | 4606 ft | 219 kts | 324° |
| 2026-05-06 15:58 | 45.25333 | 8.85228 | 4555 ft | 219 kts | 323° |
| 2026-05-06 15:59 | 45.26588 | 8.84010 | 4432 ft | 218 kts | 324° |
| 2026-05-06 15:59 | 45.27952 | 8.83077 | 4305 ft | 219 kts | 342° |
| 2026-05-06 15:59 | 45.29438 | 8.82564 | 4189 ft | 220 kts | 347° |
| 2026-05-06 15:59 | 45.30945 | 8.82150 | 4061 ft | 220 kts | 349° |
| 2026-05-06 16:00 | 45.32443 | 8.81746 | 3934 ft | 218 kts | 348° |
| 2026-05-06 16:00 | 45.33934 | 8.81339 | 3816 ft | 219 kts | 348° |
| 2026-05-06 16:00 | 45.35432 | 8.80930 | 3680 ft | 219 kts | 348° |
| 2026-05-06 16:00 | 45.36929 | 8.80521 | 3560 ft | 218 kts | 348° |
| 2026-05-06 16:01 | 45.38420 | 8.80113 | 3434 ft | 217 kts | 348° |
| 2026-05-06 16:01 | 45.39898 | 8.79708 | 3302 ft | 217 kts | 348° |
| 2026-05-06 16:01 | 45.41356 | 8.79309 | 3199 ft | 216 kts | 349° |
| 2026-05-06 16:01 | 45.42827 | 8.78906 | 3103 ft | 215 kts | 349° |
| 2026-05-06 16:02 | 45.44298 | 8.78503 | 3039 ft | 214 kts | 349° |
| 2026-05-06 16:02 | 45.45709 | 8.78116 | 3038 ft | 196 kts | 349° |
| 2026-05-06 16:02 | 45.46977 | 8.77768 | 3030 ft | 175 kts | 349° |
| 2026-05-06 16:02 | 45.48132 | 8.77450 | 3026 ft | 164 kts | 348° |
| 2026-05-06 16:03 | 45.49220 | 8.77152 | 3039 ft | 156 kts | 349° |
| 2026-05-06 16:03 | 45.50272 | 8.76863 | 2926 ft | 152 kts | 349° |
| 2026-05-06 16:03 | 45.51289 | 8.76583 | 2763 ft | 149 kts | 349° |
| 2026-05-06 16:03 | 45.52303 | 8.76304 | 2576 ft | 148 kts | 350° |
| 2026-05-06 16:04 | 45.53305 | 8.76028 | 2387 ft | 145 kts | 350° |
| 2026-05-06 16:04 | 45.54293 | 8.75756 | 2187 ft | 144 kts | 351° |
| 2026-05-06 16:04 | 45.55275 | 8.75486 | 2003 ft | 143 kts | 351° |
| 2026-05-06 16:04 | 45.56247 | 8.75219 | 1811 ft | 142 kts | 352° |
| 2026-05-06 16:05 | 45.57214 | 8.74952 | 1617 ft | 140 kts | 351° |
| 2026-05-06 16:05 | 45.58168 | 8.74692 | 1413 ft | 138 kts | 351° |
| 2026-05-06 16:05 | 45.59092 | 8.74430 | 1200 ft | 134 kts | 349° |
| 2026-05-06 16:05 | 45.60023 | 8.74177 | 1028 ft | 136 kts | 351° |
| 2026-05-06 16:06 | 45.60944 | 8.73929 | 855 ft | 134 kts | 348° |
| 2026-05-06 16:06 | 45.61865 | 8.73665 | 729 ft | 134 kts | 350° |
| 2026-05-06 16:06 | 45.62604 | 8.73460 | 729 ft | 68 kts | 349° |
| 2026-05-06 16:06 | 45.62895 | 8.73383 | 730 ft | 36 kts | 349° |
| 2026-05-06 16:07 | 45.63097 | 8.73291 | 734 ft | 28 kts | 331° |
| 2026-05-06 16:07 | 45.63235 | 8.73125 | 739 ft | 25 kts | 311° |
| 2026-05-06 16:07 | 45.63334 | 8.72933 | 743 ft | 23 kts | 304° |
| 2026-05-06 16:07 | 45.63386 | 8.72815 | 745 ft | 7 kts | 296° |
| 2026-05-06 16:08 | 45.63391 | 8.72803 | 742 ft | 0 kts | 296° |
| 2026-05-06 16:09 | 45.63396 | 8.72789 | 745 ft | 5 kts | 295° |
| 2026-05-06 16:09 | 45.63411 | 8.72671 | 746 ft | 19 kts | 266° |
| 2026-05-06 16:09 | 45.63387 | 8.72470 | 745 ft | 21 kts | 261° |
| 2026-05-06 16:10 | 45.63355 | 8.72256 | 745 ft | 23 kts | 259° |
| 2026-05-06 16:10 | 45.63328 | 8.72026 | 746 ft | 24 kts | 259° |
| 2026-05-06 16:10 | 45.63304 | 8.71845 | 748 ft | 18 kts | 259° |
| 2026-05-06 16:10 | 45.63266 | 8.71677 | 745 ft | 16 kts | 217° |
| 2026-05-06 16:11 | 45.63149 | 8.71702 | 742 ft | 19 kts | 165° |
| 2026-05-06 16:11 | 45.63115 | 8.71715 | 742 ft | 0 kts | 165° |
| 2026-05-06 16:11 | 45.63112 | 8.71717 | 743 ft | 0 kts | 165° |
| 2026-05-06 16:11 | 45.63109 | 8.71718 | 743 ft | 2 kts | 165° |
| 2026-05-06 16:12 | 45.63050 | 8.71728 | 743 ft | 21 kts | 176° |
| 2026-05-06 16:12 | 45.62855 | 8.71775 | 740 ft | 31 kts | 169° |
| 2026-05-06 16:12 | 45.62643 | 8.71830 | 735 ft | 29 kts | 169° |
| 2026-05-06 16:12 | 45.62484 | 8.71860 | 732 ft | 15 kts | 187° |
| 2026-05-06 16:13 | 45.62460 | 8.71782 | 732 ft | 6 kts | 258° |
| 2026-05-06 16:13 | 45.62457 | 8.71761 | 732 ft | 0 kts | 259° |